Imperial, NE

10:40 AM MST on February 28, 2015 (GMT -0700)
Cheyenne County Municipal | Change Station
CLOSE
Current Station
Airport
Location: St. Francis,
Elevation: 3412 ft
Nearby Weather Stations

Elev 3412 ft 39.76 °N, 101.80 °W | Updated 25 minutes ago

Clear
Clear
18 °F
Feels Like 7 °F
N
10
Wind Variable Wind from South

Today
High -- | Low -- °F
--% Chance of Precip.
Yesterday
High -- | Low -- °F
Precip. -- in
6:22 AM 5:36 PM
Waxing Gibbous, 79% visible
Pressure 30.14 in
Visibility 10.0 miles
Clouds Overcast 2000 ft
Windchill 7 °F
Dew Point 9 °F
Humidity 66%
Rainfall 0.00 in
Snow Depth Not available.
UV 1 out of 12
Pollen .50 out of 12
Air Quality Not available.
Flu Activity Not available.
METAR KSYF 281715Z AUTO 17009KT 10SM -SN OVC020 M08/M13 A3014 RMK AO2 T10761129

More Conditions Fewer Conditions

Pressure 30.14 in
Visibility 10.0 miles
Clouds Overcast 2000 ft
Windchill 7 °F
Dew Point 9 °F
Humidity 66%
Rainfall 0.00 in
Snow Depth Not available.
UV 1 out of 12
Pollen .50 out of 12
Air Quality Not available.
Flu Activity Not available.
METAR KSYF 281715Z AUTO 17009KT 10SM -SN OVC020 M08/M13 A3014 RMK AO2 T10761129

More Conditions Fewer Conditions

10-Day Weather Forecast

Almanac

Astronomy

Feb. 28, 2015 Rise Set
Actual Time
Civil Twilight
Nautical Twilight
Astronomical Twilight
Moon
Length of Visible Light
Length of Day
Tomorrow will be .
, % of the Moon is Illuminated

Today's Extremes

State Highs State Lows

Community

WunderPhotos

Upload Photos

1,801,102 photos uploaded!

WunderBlogs® & News

Nearby

Air Quality

  Air Quality AQ Index Pollutant
Not available.

Snow Depth

Station Depth Elevation

Earthquake Activity

City Distance Mag. Time & Date
Minimum magnitude displayed is 2.5.

Coastal Water Temperatures

Place Temperature

Nearby Weather Stations